KCHA/CHA METAR and TAF weather

Enter ICAO airport designator
Station Type Date Time Source
KCHA METAR 2019/08/19 22:34 UTC NOAA

KCHA 192234Z 12006G16KT 10SM SCT050 SCT065 BKN100 BKN130 BKN200 28/21 A3003 RMK AO2 LTG DSNT NE AND E RAE2157 TSE34 TS DSIPTD CB DSNT NE AND E AND NW P0000 T02780211


Station Type Date Time Source
KCHA Decoded METAR 2019/08/19 22:34 UTC NOAA

LOVELL FIELD, TN, United States (KCHA) 35-02N 085-12W 210M
Aug 19, 2019 - 06:34 PM EDT / 2019.08.19 2234 UTC
Wind: from the ESE (120 degrees) at 7 MPH (6 KT) gusting to 18 MPH (16 KT):0
Visibility: 10 mile(s):0
Sky conditions: mostly cloudy
Weather: Cumulonimbus clouds, lightning observed
Precipitation last hour: A trace
Temperature: 82.0 F (27.8 C)
Dew Point: 70.0 F (21.1 C)
Relative Humidity: 66%
Pressure (altimeter): 30.03 in. Hg (1016 hPa)
ob: KCHA 192234Z 12006G16KT 10SM SCT050 SCT065 BKN100 BKN130 BKN200 28/21 A3003 RMK AO2 LTG DSNT NE AND E RAE2157 TSE34 TS DSIPTD CB DSNT NE AND E AND NW P0000 T02780211
cycle: 22

Station Type Date Time Source
KCHA TAF 2019/08/19 21:36 UTC NOAA

TAF
AMD KCHA 192034Z 1921/2018 18007KT P6SM VCTS SCT070CB SCT100 BKN200
TEMPO 1921/1923 VRB10G20KT -TSRA BKN050CB
FM200000 00000KT P6SM SCT250
FM201500 VRB04KT P6SM SCT060

Example: see airport list